createdAt,value
2022-11-20T00:05:06.457Z,98041.88
2022-11-20T00:07:39.688Z,98034.81
2022-11-20T00:10:13.441Z,98040.97
2022-11-20T00:12:46.608Z,98034.91
2022-11-20T00:15:13.309Z,98037.56
2022-11-20T00:17:58.464Z,98038.41
2022-11-20T00:20:33.564Z,98034.06
2022-11-20T00:23:06.484Z,98022.00
2022-11-20T00:32:58.402Z,98027.41
2022-11-20T00:35:40.435Z,98025.72
2022-11-20T00:38:13.694Z,98029.22
2022-11-20T00:40:40.360Z,98037.91
2022-11-20T00:43:20.472Z,98041.47
2022-11-20T00:45:58.081Z,98041.47
2022-11-20T00:58:56.395Z,98041.53
2022-11-20T01:01:36.501Z,98041.56
2022-11-20T01:04:09.662Z,98032.94
2022-11-20T01:06:45.438Z,98041.59
2022-11-20T01:09:18.880Z,98048.56
2022-11-20T01:11:52.414Z,98039.03
2022-11-20T01:25:20.432Z,98045.22
2022-11-20T01:27:53.570Z,98048.69
2022-11-20T01:30:20.257Z,98042.63
2022-11-20T01:33:02.452Z,98046.13
2022-11-20T01:35:35.621Z,98041.81
2022-11-20T01:38:02.287Z,98041.91
2022-11-20T01:40:44.421Z,98036.59
2022-11-20T01:53:54.446Z,98032.19
2022-11-20T01:56:41.803Z,98033.97
2022-11-20T01:59:25.676Z,98033.16
2022-11-20T02:01:59.287Z,98031.44
2022-11-20T02:04:33.479Z,98029.81
2022-11-20T02:07:06.755Z,98022.91
2022-11-20T02:19:57.393Z,98023.19
2022-11-20T02:22:50.467Z,98029.34
2022-11-20T02:25:28.443Z,98024.16
2022-11-20T02:28:09.411Z,98023.31
2022-11-20T02:30:42.567Z,98030.34
2022-11-20T02:33:09.241Z,98025.97
2022-11-20T02:46:14.432Z,98017.25
2022-11-20T02:48:54.393Z,98020.72
2022-11-20T02:51:27.625Z,98020.72
2022-11-20T02:53:54.312Z,98012.88
2022-11-20T02:56:34.399Z,98016.38
2022-11-20T02:59:07.900Z,98011.16
2022-11-20T03:01:44.015Z,98012.09
2022-11-20T03:12:14.404Z,98004.16
2022-11-20T03:15:01.388Z,98011.16
2022-11-20T03:17:36.865Z,98012.88
2022-11-20T03:20:12.410Z,98010.31
2022-11-20T03:22:45.604Z,98006.88
2022-11-20T03:25:12.338Z,98004.25
2022-11-20T03:27:52.393Z,98009.47
2022-11-20T03:41:09.436Z,98002.72
2022-11-20T03:43:42.651Z,98004.47
2022-11-20T03:46:22.413Z,98003.66
2022-11-20T03:48:56.618Z,97998.47
2022-11-20T03:51:32.400Z,97997.56
2022-11-20T04:08:09.348Z,98012.31
2022-11-20T04:10:49.393Z,98009.75
2022-11-20T04:13:22.635Z,98014.97
2022-11-20T04:15:49.295Z,98014.03
2022-11-20T04:18:29.419Z,98007.97
2022-11-20T04:21:03.697Z,98013.25
2022-11-20T04:33:54.348Z,98003.81
2022-11-20T04:36:36.381Z,97999.50
2022-11-20T04:39:14.424Z,97996.03
2022-11-20T04:41:54.408Z,97994.25
2022-11-20T04:44:33.352Z,97996.88
2022-11-20T04:47:13.373Z,97990.81
2022-11-20T05:00:26.360Z,97986.63
2022-11-20T05:02:59.677Z,97984.03
2022-11-20T05:05:33.877Z,97982.31
2022-11-20T05:08:07.563Z,97984.97
2022-11-20T05:10:40.392Z,97978.88
2022-11-20T05:13:13.669Z,97978.88
2022-11-20T05:26:06.334Z,97974.66
2022-11-20T05:28:46.399Z,97976.41
2022-11-20T05:31:27.116Z,97972.94
2022-11-20T05:34:08.400Z,97982.50
2022-11-20T05:36:41.661Z,97977.34
2022-11-20T05:39:08.312Z,97982.59
2022-11-20T05:41:50.365Z,97986.06
2022-11-20T05:55:00.379Z,97980.13
2022-11-20T05:57:35.620Z,97979.25
2022-11-20T06:00:10.393Z,97964.53
2022-11-20T06:02:43.679Z,97963.69
2022-11-20T06:05:24.344Z,97961.97
2022-11-20T06:07:57.528Z,97975.91
2022-11-20T06:20:47.332Z,97959.41
2022-11-20T06:23:27.350Z,97957.69
2022-11-20T06:26:03.576Z,97958.59
2022-11-20T06:28:36.376Z,97957.72
2022-11-20T06:31:13.400Z,97954.31
2022-11-20T06:47:35.368Z,97956.88
2022-11-20T06:50:09.560Z,97958.59
2022-11-20T06:52:43.801Z,97956.88
2022-11-20T06:55:17.552Z,97956.88
2022-11-20T06:57:54.724Z,97960.38
2022-11-20T07:00:29.790Z,97957.75
2022-11-20T07:03:05.332Z,97956.94
2022-11-20T07:13:05.377Z,97941.41
2022-11-20T07:15:46.406Z,97934.47
2022-11-20T07:18:21.487Z,97937.13
2022-11-20T07:20:54.338Z,97939.69
2022-11-20T07:23:27.656Z,97943.22
2022-11-20T07:26:11.362Z,97934.47
2022-11-20T07:39:50.343Z,97923.28
2022-11-20T07:42:23.559Z,97924.94
2022-11-20T07:44:58.372Z,97913.66
2022-11-20T07:47:36.063Z,97917.94
2022-11-20T07:50:16.369Z,97913.56
2022-11-20T07:53:02.564Z,97913.47
2022-11-20T08:06:34.308Z,97916.78
2022-11-20T08:09:14.331Z,97912.41
2022-11-20T08:11:47.564Z,97906.31
2022-11-20T08:14:14.249Z,97910.59
2022-11-20T08:16:57.092Z,97914.88
2022-11-20T08:19:31.271Z,97907.88
2022-11-20T08:22:06.316Z,97902.59
2022-11-20T08:35:16.333Z,97898.97
2022-11-20T08:37:51.430Z,97892.81
2022-11-20T08:40:25.310Z,97897.09
2022-11-20T08:42:58.633Z,97898.81
2022-11-20T08:45:34.605Z,97902.22
2022-11-20T08:48:08.580Z,97901.34
2022-11-20T09:00:58.346Z,97897.84
2022-11-20T09:03:38.324Z,97887.38
2022-11-20T09:06:11.569Z,97894.25
2022-11-20T09:08:45.343Z,97889.88
2022-11-20T09:11:18.547Z,97890.75
2022-11-20T09:27:33.324Z,97894.03
2022-11-20T09:30:08.660Z,97886.16
2022-11-20T09:32:42.295Z,97882.66
2022-11-20T09:35:15.758Z,97881.72
2022-11-20T09:37:49.315Z,97883.47
2022-11-20T09:40:34.929Z,97877.28
2022-11-20T09:53:38.270Z,97872.50
2022-11-20T09:56:35.325Z,97869.81
2022-11-20T09:59:27.663Z,97862.81
2022-11-20T10:02:21.334Z,97865.34
2022-11-20T10:05:04.480Z,97867.91
2022-11-20T10:07:53.366Z,97873.09
2022-11-20T10:21:18.300Z,97860.78
2022-11-20T10:24:38.937Z,97855.56
2022-11-20T10:27:49.492Z,97848.56
2022-11-20T10:30:22.943Z,97847.63
2022-11-20T10:33:03.323Z,97848.47
2022-11-20T10:35:44.382Z,97857.97
2022-11-20T10:48:19.273Z,97856.53
2022-11-20T10:51:18.295Z,97851.25
2022-11-20T10:54:10.616Z,97849.34
2022-11-20T10:56:55.296Z,97847.41
2022-11-20T11:00:00.195Z,97845.31
2022-11-20T11:02:46.303Z,97843.22
2022-11-20T11:15:58.304Z,97820.94
2022-11-20T11:18:34.596Z,97810.19
2022-11-20T11:21:10.292Z,97804.66
2022-11-20T11:23:43.800Z,97802.66
2022-11-20T11:26:28.287Z,97805.91
2022-11-20T11:43:09.248Z,97796.47
2022-11-20T11:46:02.704Z,97794.53
2022-11-20T11:48:35.555Z,97784.78
2022-11-20T11:51:09.314Z,97788.94
2022-11-20T11:53:43.747Z,97784.56
2022-11-20T11:56:20.288Z,97790.66
2022-11-20T12:09:44.280Z,97776.66
2022-11-20T12:12:24.676Z,97772.38
2022-11-20T12:15:05.288Z,97770.66
2022-11-20T12:17:38.480Z,97773.38
2022-11-20T12:20:19.316Z,97767.34
2022-11-20T12:23:02.507Z,97764.78
2022-11-20T12:36:24.239Z,97743.97
2022-11-20T12:39:40.324Z,97739.66
2022-11-20T12:42:53.040Z,97743.06
2022-11-20T12:46:10.302Z,97736.97
2022-11-20T13:03:30.249Z,97718.47
2022-11-20T13:06:22.279Z,97721.03
2022-11-20T13:08:56.932Z,97713.22
2022-11-20T13:11:41.260Z,97708.72
2022-11-20T13:14:32.687Z,97719.09
2022-11-20T13:17:21.302Z,97712.88
2022-11-20T13:27:40.224Z,97699.78
2022-11-20T13:30:25.282Z,97705.81
2022-11-20T13:33:07.687Z,97708.28
2022-11-20T13:35:50.273Z,97709.13
2022-11-20T13:38:23.476Z,97703.72
2022-11-20T13:41:05.489Z,97698.31
2022-11-20T13:55:17.261Z,97691.88
2022-11-20T13:58:23.729Z,97678.69
2022-11-20T14:01:14.354Z,97691.13
2022-11-20T14:06:52.245Z,97692.56
2022-11-20T14:23:36.231Z,97697.81
2022-11-20T14:26:24.268Z,97688.31
2022-11-20T14:28:57.655Z,97698.09
2022-11-20T14:31:33.238Z,97690.38
2022-11-20T14:34:11.197Z,97694.00
2022-11-20T14:36:51.364Z,97693.25
2022-11-20T14:50:09.846Z,97696.25
2022-11-20T14:52:51.869Z,97702.47
2022-11-20T14:55:38.279Z,97697.31
2022-11-20T14:58:23.732Z,97699.13
2022-11-20T15:01:07.248Z,97702.69
2022-11-20T15:14:39.260Z,97690.56
2022-11-20T15:17:12.558Z,97681.81
2022-11-20T15:19:46.245Z,97687.06
2022-11-20T15:22:19.508Z,97688.03
2022-11-20T15:24:53.225Z,97681.94
2022-11-20T15:27:26.441Z,97681.94
2022-11-20T15:43:41.250Z,97665.69
2022-11-20T15:46:17.937Z,97670.06
2022-11-20T15:49:01.746Z,97667.50
2022-11-20T15:51:38.052Z,97667.56
2022-11-20T15:54:19.231Z,97667.66
2022-11-20T15:56:52.467Z,97661.63
2022-11-20T16:09:42.194Z,97661.88
2022-11-20T16:12:22.240Z,97665.47
2022-11-20T16:14:55.424Z,97655.13
2022-11-20T16:17:22.085Z,97665.56
2022-11-20T16:20:02.237Z,97659.53
2022-11-20T16:22:35.453Z,97654.34
2022-11-20T16:35:25.206Z,97659.84
2022-11-20T16:38:05.248Z,97663.38
2022-11-20T16:40:38.435Z,97666.88
2022-11-20T16:43:16.231Z,97663.47
2022-11-20T16:45:49.755Z,97659.94
2022-11-20T16:48:23.217Z,97664.28
2022-11-20T17:01:40.293Z,97680.25
2022-11-20T17:04:13.431Z,97679.41
2022-11-20T17:06:50.215Z,97687.31
2022-11-20T17:09:23.376Z,97692.44
2022-11-20T17:11:50.066Z,97695.00
2022-11-20T17:14:30.226Z,97685.25
2022-11-20T17:17:05.448Z,97690.31
2022-11-20T17:29:53.192Z,97686.59
2022-11-20T17:32:35.227Z,97690.09
2022-11-20T17:35:09.064Z,97686.59
2022-11-20T17:37:42.216Z,97684.88
2022-11-20T17:40:15.612Z,97680.53
2022-11-20T17:42:49.221Z,97679.66
2022-11-20T17:56:05.476Z,97684.03
2022-11-20T17:58:38.428Z,97688.44
2022-11-20T18:01:12.221Z,97691.94
2022-11-20T18:03:46.093Z,97693.75
2022-11-20T18:06:23.297Z,97685.16
2022-11-20T18:22:59.180Z,97662.63
2022-11-20T18:25:39.225Z,97672.22
2022-11-20T18:28:12.388Z,97662.75
2022-11-20T18:30:39.049Z,97657.53
2022-11-20T18:33:19.538Z,97661.03
2022-11-20T18:35:54.446Z,97663.72
2022-11-20T18:38:29.200Z,97655.94
2022-11-20T18:48:38.422Z,97657.84
2022-11-20T18:51:18.206Z,97661.25
2022-11-20T18:53:53.281Z,97665.63
2022-11-20T18:56:26.725Z,97664.72
2022-11-20T18:59:01.730Z,97663.97
2022-11-20T19:01:35.243Z,97661.44
2022-11-20T19:15:26.191Z,97676.63
2022-11-20T19:17:59.412Z,97667.97
2022-11-20T19:20:33.219Z,97660.13
2022-11-20T19:23:06.405Z,97649.78
2022-11-20T19:25:37.966Z,97653.22
2022-11-20T19:28:20.211Z,97656.59
2022-11-20T19:42:11.190Z,97638.50
2022-11-20T19:44:44.315Z,97636.75
2022-11-20T19:47:14.405Z,97638.50
2022-11-20T19:49:55.250Z,97636.78
2022-11-20T19:52:28.392Z,97637.66
2022-11-20T19:54:55.104Z,97635.88
2022-11-20T19:57:39.438Z,97642.00
2022-11-20T20:10:49.164Z,97630.78
2022-11-20T20:13:25.129Z,97642.94
2022-11-20T20:15:59.228Z,97623.06
2022-11-20T20:18:32.378Z,97634.38
2022-11-20T20:21:10.206Z,97643.97
2022-11-20T20:37:47.132Z,97645.22
2022-11-20T20:40:27.199Z,97632.16
2022-11-20T20:43:00.395Z,97631.34
2022-11-20T20:45:34.188Z,97629.63
2022-11-20T20:48:07.344Z,97636.66
2022-11-20T20:50:34.013Z,97638.44
2022-11-20T20:53:19.167Z,97631.53
2022-11-20T21:03:04.129Z,97622.88
2022-11-20T21:05:44.204Z,97615.06
2022-11-20T21:08:19.279Z,97620.28
2022-11-20T21:10:52.172Z,97615.94
2022-11-20T21:13:25.883Z,97614.22
2022-11-20T21:15:59.196Z,97605.56
2022-11-20T21:18:34.061Z,97609.88
2022-11-20T21:31:27.179Z,97589.75
2022-11-20T21:34:07.157Z,97576.69
2022-11-20T21:36:41.311Z,97558.41
2022-11-20T21:39:17.183Z,97561.94
2022-11-20T21:41:50.448Z,97554.00
2022-11-20T21:58:04.160Z,97543.59
2022-11-20T22:00:37.361Z,97541.81
2022-11-20T22:03:11.871Z,97546.09
2022-11-20T22:05:54.013Z,97537.47
2022-11-20T22:08:34.133Z,97533.97
2022-11-20T22:11:11.129Z,97524.41
2022-11-20T22:24:08.124Z,97497.38
2022-11-20T22:26:48.174Z,97489.53
2022-11-20T22:29:21.498Z,97479.88
2022-11-20T22:32:00.165Z,97467.69
2022-11-20T22:34:33.325Z,97464.19
2022-11-20T22:36:59.984Z,97452.06
2022-11-20T22:49:57.120Z,97471.06
2022-11-20T22:52:37.159Z,97462.38
2022-11-20T22:55:15.988Z,97458.88
2022-11-20T22:57:56.152Z,97465.81
2022-11-20T23:00:29.388Z,97460.56
2022-11-20T23:02:56.046Z,97452.75
2022-11-20T23:16:15.117Z,97435.16
2022-11-20T23:18:59.153Z,97419.47
2022-11-20T23:21:34.441Z,97425.59
2022-11-20T23:24:08.133Z,97425.59
2022-11-20T23:26:41.628Z,97422.06
2022-11-20T23:29:15.243Z,97422.06
2022-11-20T23:31:50.427Z,97415.00
2022-11-20T23:44:38.100Z,97400.13
2022-11-20T23:47:20.136Z,97394.00
2022-11-20T23:49:53.335Z,97398.31
2022-11-20T23:52:20.035Z,97406.94
2022-11-20T23:55:00.153Z,97396.47
2022-11-20T23:57:33.327Z,97394.69
